Disclaimer

Please do not use the information listed here in-flight or in-navigation, as they are not provided to us by the airports but are provided by volunteers, so they might be outdated.

Search


Regions


Airport information page

Radio informations:
ARR - 126.2 MHz

Airport informations:
Latitude: 63° 41' 56.07" N
Longitude: 009° 36' 14.41" E
Elevation: 28 feet - 9 meters
Operating hours: NO OPERATING HOURS LISTED
Operating agency: Military-civil joint use airport
Timezone: UTC+1(+2DT) - Last Sunday in March to last Sunday in October
Fuel: Jet A1+, Jet A1 with icing inhibitor.

JP-4, Wide cut turbine fuel MIL Spec T-5624

100/130 MIL Spec, low lead, aviation gasoline (BLUE)

Runway information:
15/33 - 8904 x 148 feet< - >2714 x 45 meters

Recent METARs:
ENOL 210150Z 12020KT CAVOK 06/M01 Q1032
ENOL 210150Z 12020KT CAVOK 06/M01 Q1032
ENOL 210250Z 11018KT CAVOK 05/M01 Q1032

Airport on the map: